createdAt,value
2017-06-24T00:00:06.333Z,6.10
2017-06-24T00:02:38.730Z,7.93
2017-06-24T00:05:11.436Z,6.07
2017-06-24T00:07:44.404Z,12.70
2017-06-24T00:10:18.474Z,8.47
2017-06-24T00:12:51.251Z,6.80
2017-06-24T00:15:25.565Z,9.17
2017-06-24T00:17:58.621Z,7.07
2017-06-24T00:20:31.274Z,5.80
2017-06-24T00:23:12.894Z,5.13
2017-06-24T00:25:45.835Z,6.00
2017-06-24T00:28:35.426Z,8.20
2017-06-24T00:31:08.690Z,5.30
2017-06-24T00:37:12.138Z,7.00
2017-06-24T00:39:44.447Z,7.40
2017-06-24T00:42:18.113Z,6.03
2017-06-24T00:44:57.504Z,6.10
2017-06-24T00:47:30.902Z,5.70
2017-06-24T00:50:03.416Z,4.30
2017-06-24T00:52:36.464Z,4.87
2017-06-24T00:55:09.576Z,6.03
2017-06-24T00:57:42.860Z,4.40
2017-06-24T01:00:15.240Z,6.87
2017-06-24T01:02:54.654Z,6.67
2017-06-24T01:05:32.790Z,4.20
2017-06-24T01:08:16.763Z,4.73
2017-06-24T01:10:52.289Z,6.50
2017-06-24T01:13:25.973Z,6.07
2017-06-24T01:19:00.987Z,4.17
2017-06-24T01:21:36.354Z,4.17
2017-06-24T01:24:16.094Z,5.03
2017-06-24T01:26:56.002Z,3.87
2017-06-24T01:33:26.359Z,7.87
2017-06-24T01:36:12.700Z,3.93
2017-06-24T01:38:52.000Z,5.57
2017-06-24T01:41:34.680Z,7.70
2017-06-24T01:47:11.901Z,5.33
2017-06-24T01:58:38.878Z,4.33
2017-06-24T02:01:29.627Z,4.80
2017-06-24T02:09:40.136Z,6.57
2017-06-24T02:12:13.762Z,4.57
2017-06-24T02:14:46.992Z,8.20
2017-06-24T02:31:25.034Z,4.47
2017-06-24T02:33:51.381Z,5.27
2017-06-24T02:36:17.776Z,5.93
2017-06-24T02:38:44.140Z,7.43
2017-06-24T02:41:10.468Z,5.93
2017-06-24T02:43:36.786Z,8.13
2017-06-24T02:46:03.158Z,5.70
2017-06-24T02:48:29.516Z,6.37
2017-06-24T02:50:55.904Z,4.90
2017-06-24T02:53:22.243Z,7.37
2017-06-24T02:55:48.691Z,5.37
2017-06-24T02:58:15.013Z,4.97
2017-06-24T03:00:41.337Z,6.17
2017-06-24T03:03:07.654Z,8.17
2017-06-24T03:05:33.972Z,5.03
2017-06-24T03:08:00.339Z,7.50
2017-06-24T03:10:26.666Z,5.53
2017-06-24T03:12:52.996Z,7.10
2017-06-24T03:15:19.343Z,7.33
2017-06-24T03:17:45.684Z,5.17
2017-06-24T03:20:12.014Z,6.50
2017-06-24T03:22:38.319Z,4.80
2017-06-24T03:25:04.729Z,5.23
2017-06-24T03:27:31.026Z,5.27
2017-06-24T03:29:58.245Z,6.83
2017-06-24T03:32:24.567Z,8.07
2017-06-24T03:34:50.862Z,4.43
2017-06-24T03:37:17.220Z,6.27
2017-06-24T03:39:43.888Z,6.03
2017-06-24T03:42:10.258Z,5.40
2017-06-24T03:44:36.630Z,5.60
2017-06-24T03:47:02.972Z,7.07
2017-06-24T03:49:29.265Z,9.77
2017-06-24T03:51:55.655Z,5.07
2017-06-24T03:54:21.989Z,5.67
2017-06-24T03:56:48.308Z,6.90
2017-06-24T03:59:14.672Z,4.97
2017-06-24T04:01:41.096Z,6.37
2017-06-24T04:04:07.418Z,7.67
2017-06-24T04:06:33.717Z,6.07
2017-06-24T04:09:00.063Z,4.77
2017-06-24T04:11:26.419Z,7.60
2017-06-24T04:13:52.750Z,3.53
2017-06-24T04:16:19.065Z,5.90
2017-06-24T04:18:45.395Z,4.63
2017-06-24T04:21:11.715Z,4.23
2017-06-24T04:23:38.061Z,4.70
2017-06-24T04:26:04.398Z,6.10
2017-06-24T04:28:30.710Z,4.20
2017-06-24T04:30:57.057Z,5.23
2017-06-24T04:33:23.447Z,5.37
2017-06-24T04:35:49.897Z,3.83
2017-06-24T04:38:16.254Z,4.10
2017-06-24T04:40:42.618Z,5.77
2017-06-24T04:43:08.983Z,6.30
2017-06-24T04:45:35.310Z,7.50
2017-06-24T04:48:01.611Z,4.60
2017-06-24T04:50:27.973Z,7.47
2017-06-24T04:52:54.351Z,3.87
2017-06-24T04:55:20.678Z,7.23
2017-06-24T04:57:47.013Z,11.03
2017-06-24T05:00:13.360Z,5.20
2017-06-24T05:02:39.689Z,3.73
2017-06-24T05:05:06.048Z,4.20
2017-06-24T05:07:32.424Z,4.87
2017-06-24T05:09:58.724Z,4.33
2017-06-24T05:12:25.167Z,5.23
2017-06-24T05:14:51.509Z,4.83
2017-06-24T05:17:17.841Z,7.73
2017-06-24T05:19:44.166Z,6.57
2017-06-24T05:22:10.487Z,4.43
2017-06-24T05:24:36.834Z,4.50
2017-06-24T05:27:03.160Z,4.77
2017-06-24T05:29:29.484Z,5.17
2017-06-24T05:31:55.825Z,4.90
2017-06-24T05:34:22.181Z,8.00
2017-06-24T05:36:48.588Z,4.27
2017-06-24T05:39:16.848Z,7.37
2017-06-24T05:41:43.168Z,5.30
2017-06-24T05:44:09.540Z,4.93
2017-06-24T05:46:35.881Z,6.20
2017-06-24T05:49:02.210Z,5.57
2017-06-24T05:51:28.538Z,5.37
2017-06-24T05:53:54.871Z,4.73
2017-06-24T05:56:22.911Z,4.57
2017-06-24T05:58:50.743Z,5.90
2017-06-24T06:01:17.226Z,4.10
2017-06-24T06:03:43.577Z,9.50
2017-06-24T06:06:09.905Z,5.23
2017-06-24T06:08:36.319Z,4.70
2017-06-24T06:11:02.622Z,9.40
2017-06-24T06:13:28.953Z,3.97
2017-06-24T06:15:55.302Z,4.53
2017-06-24T06:18:21.627Z,4.10
2017-06-24T06:20:47.965Z,3.93
2017-06-24T06:23:14.305Z,9.67
2017-06-24T06:25:40.655Z,6.40
2017-06-24T06:28:07.024Z,4.33
2017-06-24T06:30:33.354Z,5.53
2017-06-24T06:32:59.690Z,4.13
2017-06-24T06:35:26.018Z,5.07
2017-06-24T06:37:52.371Z,5.23
2017-06-24T06:40:18.701Z,4.27
2017-06-24T06:42:45.036Z,4.90
2017-06-24T06:45:11.375Z,6.13
2017-06-24T06:47:37.698Z,5.03
2017-06-24T06:50:11.813Z,4.60
2017-06-24T06:52:45.178Z,7.40
2017-06-24T06:55:18.811Z,3.83
2017-06-24T07:00:37.631Z,5.43
2017-06-24T07:03:10.436Z,4.00
2017-06-24T07:05:40.893Z,3.87
2017-06-24T07:08:27.434Z,8.37
2017-06-24T07:10:57.614Z,5.00
2017-06-24T07:13:30.746Z,4.50
2017-06-24T07:16:03.487Z,4.83
2017-06-24T10:54:11.537Z,7.80
2017-06-24T10:59:57.221Z,6.00
2017-06-24T11:02:34.117Z,12.23
2017-06-24T11:05:13.456Z,5.07
2017-06-24T11:10:40.264Z,7.40
2017-06-24T11:16:20.641Z,7.07
2017-06-24T11:19:08.187Z,6.40
2017-06-24T11:21:51.227Z,7.73
2017-06-24T11:30:20.512Z,6.20
2017-06-24T11:35:59.890Z,5.20
2017-06-24T11:38:39.998Z,8.10
2017-06-24T11:44:21.003Z,4.80
2017-06-24T11:46:58.584Z,8.97
2017-06-24T11:49:45.193Z,6.13
2017-06-24T11:52:26.142Z,6.60
2017-06-24T11:55:16.054Z,11.30
2017-06-24T11:57:57.464Z,7.63
2017-06-24T12:03:30.029Z,5.73
2017-06-24T12:08:59.265Z,7.03
2017-06-24T12:11:33.073Z,6.13
2017-06-24T12:17:01.528Z,6.27
2017-06-24T12:19:40.276Z,6.33
2017-06-24T12:28:11.346Z,7.03
2017-06-24T12:39:41.996Z,7.57
2017-06-24T12:42:25.957Z,8.23
2017-06-24T12:45:12.911Z,7.70
2017-06-24T12:50:40.562Z,8.90
2017-06-24T12:53:15.606Z,6.73
2017-06-24T12:56:05.839Z,6.93
2017-06-24T12:58:56.027Z,8.80
2017-06-24T13:01:31.090Z,7.60
2017-06-24T13:18:21.080Z,6.90
2017-06-24T13:20:47.420Z,7.30
2017-06-24T13:23:13.807Z,8.33
2017-06-24T13:25:40.188Z,9.70
2017-06-24T13:28:06.532Z,8.30
2017-06-24T13:30:32.891Z,6.87
2017-06-24T13:32:59.252Z,7.30
2017-06-24T13:35:25.740Z,8.23
2017-06-24T13:37:52.091Z,7.40
2017-06-24T13:40:18.500Z,7.43
2017-06-24T13:42:44.859Z,7.50
2017-06-24T13:45:11.246Z,8.90
2017-06-24T13:47:37.599Z,7.80
2017-06-24T13:50:03.958Z,7.93
2017-06-24T13:52:30.323Z,8.43
2017-06-24T13:54:56.752Z,8.87
2017-06-24T13:57:23.107Z,10.80
2017-06-24T13:59:49.492Z,10.00
2017-06-24T14:02:15.858Z,10.00
2017-06-24T14:04:42.210Z,9.40
2017-06-24T14:07:08.553Z,8.93
2017-06-24T14:09:34.910Z,9.03
2017-06-24T14:12:01.283Z,9.70
2017-06-24T14:14:27.636Z,10.07
2017-06-24T14:16:54.033Z,10.20
2017-06-24T14:19:20.364Z,14.03
2017-06-24T14:21:46.821Z,9.37
2017-06-24T14:24:13.189Z,9.43
2017-06-24T14:26:39.540Z,9.63
2017-06-24T14:29:05.902Z,11.53
2017-06-24T14:31:32.281Z,10.10
2017-06-24T14:33:58.736Z,9.70
2017-06-24T14:36:25.128Z,9.60
2017-06-24T14:38:51.543Z,10.50
2017-06-24T14:41:18.472Z,10.47
2017-06-24T14:43:44.939Z,10.00
2017-06-24T14:46:11.736Z,9.60
2017-06-24T14:48:38.109Z,11.30
2017-06-24T14:51:04.795Z,10.50
2017-06-24T14:53:31.140Z,10.37
2017-06-24T14:55:57.529Z,12.07
2017-06-24T14:58:24.668Z,11.40
2017-06-24T15:00:51.045Z,10.60
2017-06-24T15:03:17.399Z,11.50
2017-06-24T15:05:43.854Z,11.20
2017-06-24T15:08:10.531Z,11.60
2017-06-24T15:10:36.890Z,11.90
2017-06-24T15:13:03.283Z,10.40
2017-06-24T15:15:29.693Z,11.00
2017-06-24T15:17:56.057Z,10.70
2017-06-24T15:20:22.427Z,13.23
2017-06-24T15:22:48.820Z,17.00
2017-06-24T15:25:15.164Z,10.20
2017-06-24T15:27:41.537Z,13.43
2017-06-24T15:30:07.897Z,10.37
2017-06-24T15:32:34.307Z,10.37
2017-06-24T15:35:00.682Z,10.90
2017-06-24T15:37:27.116Z,9.97
2017-06-24T15:39:53.496Z,9.63
2017-06-24T15:42:20.042Z,8.77
2017-06-24T15:44:46.417Z,9.57
2017-06-24T15:47:12.781Z,9.70
2017-06-24T15:49:39.195Z,9.00
2017-06-24T15:52:05.668Z,9.07
2017-06-24T15:54:32.056Z,9.57
2017-06-24T15:56:59.044Z,8.70
2017-06-24T15:59:25.738Z,10.40
2017-06-24T16:01:52.101Z,8.90
2017-06-24T16:04:18.462Z,10.00
2017-06-24T16:06:44.874Z,9.47
2017-06-24T16:09:11.235Z,8.07
2017-06-24T16:11:37.610Z,10.70
2017-06-24T16:14:03.973Z,10.27
2017-06-24T16:16:30.332Z,9.13
2017-06-24T16:18:56.701Z,7.87
2017-06-24T16:21:23.053Z,8.40
2017-06-24T16:23:49.602Z,8.20
2017-06-24T16:26:16.507Z,7.30
2017-06-24T16:28:42.894Z,8.40
2017-06-24T16:31:09.297Z,7.10
2017-06-24T16:33:35.740Z,6.47
2017-06-24T16:36:02.088Z,7.30
2017-06-24T16:38:28.444Z,7.57
2017-06-24T16:40:54.859Z,6.30
2017-06-24T16:43:21.252Z,7.37
2017-06-24T16:46:00.272Z,7.30
2017-06-24T16:48:32.855Z,6.33
2017-06-24T16:51:05.250Z,6.10
2017-06-24T16:53:32.125Z,5.23
2017-06-24T16:55:58.501Z,6.57
2017-06-24T16:58:24.890Z,6.43
2017-06-24T17:00:51.273Z,6.10
2017-06-24T17:06:09.788Z,6.90
2017-06-24T17:08:36.845Z,6.20
2017-06-24T17:11:03.153Z,6.27
2017-06-24T17:13:29.866Z,5.60
2017-06-24T17:15:56.265Z,6.93
2017-06-24T17:18:22.648Z,5.37
2017-06-24T17:20:49.845Z,5.30
2017-06-24T17:23:16.245Z,6.30
2017-06-24T17:25:42.565Z,8.43
2017-06-24T17:28:09.111Z,8.20
2017-06-24T17:30:35.443Z,8.30
2017-06-24T17:33:17.163Z,13.03
2017-06-24T17:35:43.476Z,9.77
2017-06-24T17:38:09.867Z,10.07
2017-06-24T17:40:36.193Z,6.33
2017-06-24T17:43:02.528Z,8.00
2017-06-24T17:45:28.844Z,7.53
2017-06-24T17:47:55.264Z,6.00
2017-06-24T17:50:21.621Z,6.87
2017-06-24T17:52:48.139Z,5.50
2017-06-24T17:55:14.437Z,6.13
2017-06-24T17:57:40.880Z,5.40
2017-06-24T18:00:07.239Z,5.20
2017-06-24T18:02:33.574Z,5.83
2017-06-24T18:04:59.914Z,5.83
2017-06-24T18:07:26.252Z,6.80
2017-06-24T18:09:52.598Z,6.03
2017-06-24T18:12:18.998Z,5.83
2017-06-24T18:14:46.087Z,5.70
2017-06-24T18:17:12.394Z,5.80
2017-06-24T18:19:38.751Z,6.00
2017-06-24T18:22:05.068Z,5.30
2017-06-24T18:24:31.380Z,5.93
2017-06-24T18:26:57.718Z,9.37
2017-06-24T18:29:24.065Z,5.57
2017-06-24T18:31:50.412Z,8.90
2017-06-24T18:34:16.796Z,6.07
2017-06-24T18:36:43.114Z,8.00
2017-06-24T18:39:09.442Z,8.73
2017-06-24T18:41:35.788Z,7.93
2017-06-24T18:44:02.152Z,9.30
2017-06-24T18:46:28.461Z,8.80
2017-06-24T18:48:54.792Z,9.97
2017-06-24T18:51:21.132Z,18.67
2017-06-24T18:53:47.510Z,11.17
2017-06-24T18:56:13.841Z,14.57
2017-06-24T18:58:40.157Z,11.17
2017-06-24T19:01:06.516Z,12.47
2017-06-24T19:03:32.855Z,12.57
2017-06-24T19:05:59.194Z,12.23
2017-06-24T19:08:25.530Z,11.77
2017-06-24T19:10:51.884Z,11.13
2017-06-24T19:13:18.250Z,10.50
2017-06-24T19:15:44.596Z,12.50
2017-06-24T19:18:10.950Z,11.20
2017-06-24T19:20:37.302Z,10.90
2017-06-24T19:23:03.637Z,11.30
2017-06-24T19:25:29.981Z,12.23
2017-06-24T19:27:56.338Z,11.10
2017-06-24T19:30:28.958Z,12.37
2017-06-24T19:33:01.700Z,11.53
2017-06-24T19:35:28.045Z,10.33
2017-06-24T19:38:01.148Z,12.23
2017-06-24T19:40:27.491Z,11.37
2017-06-24T19:42:53.815Z,12.20
2017-06-24T19:45:20.188Z,12.27
2017-06-24T19:47:53.402Z,12.60
2017-06-24T19:50:19.765Z,10.97
2017-06-24T19:52:46.124Z,12.30
2017-06-24T19:55:12.477Z,13.50
2017-06-24T19:57:44.366Z,13.33
2017-06-24T20:00:10.716Z,13.97
2017-06-24T20:02:37.047Z,12.80
2017-06-24T20:05:03.374Z,12.77
2017-06-24T20:07:29.713Z,13.27
2017-06-24T20:09:56.059Z,15.10
2017-06-24T20:12:22.392Z,15.13
2017-06-24T20:15:12.234Z,12.70
2017-06-24T20:17:38.580Z,12.40
2017-06-24T20:20:24.588Z,12.80
2017-06-24T20:22:50.985Z,12.83
2017-06-24T20:25:17.346Z,14.47
2017-06-24T20:27:43.664Z,14.20
2017-06-24T20:30:17.848Z,15.90
2017-06-24T20:32:50.915Z,15.47
2017-06-24T20:35:23.736Z,15.67
2017-06-24T20:37:56.530Z,15.47
2017-06-24T20:40:30.506Z,14.43
2017-06-24T20:43:03.460Z,14.93
2017-06-24T20:45:37.920Z,13.50
2017-06-24T20:48:12.017Z,17.13
2017-06-24T20:50:44.822Z,15.23
2017-06-24T20:56:04.486Z,14.90
2017-06-24T20:58:38.436Z,13.13
2017-06-24T21:01:11.346Z,14.23
2017-06-24T21:03:38.229Z,15.13
2017-06-24T21:06:12.033Z,16.70
2017-06-24T21:08:45.451Z,16.37
2017-06-24T21:11:18.738Z,17.70
2017-06-24T21:13:51.782Z,13.40
2017-06-24T21:16:25.414Z,17.23
2017-06-24T21:18:51.790Z,19.00
2017-06-24T21:21:18.115Z,18.53
2017-06-24T21:23:52.122Z,19.90
2017-06-24T21:26:18.438Z,19.40
2017-06-24T21:28:44.824Z,17.60
2017-06-24T21:31:11.135Z,19.60
2017-06-24T21:33:37.861Z,19.67
2017-06-24T21:36:11.524Z,18.30
2017-06-24T21:38:42.959Z,20.47
2017-06-24T21:41:09.305Z,18.37
2017-06-24T21:43:35.651Z,17.97
2017-06-24T21:46:02.317Z,19.13
2017-06-24T21:48:28.677Z,19.40
2017-06-24T21:50:55.037Z,19.90
2017-06-24T21:53:21.473Z,20.00
2017-06-24T21:55:47.810Z,20.20
2017-06-24T21:58:14.172Z,17.87
2017-06-24T22:00:40.530Z,17.40
2017-06-24T22:03:06.879Z,19.30
2017-06-24T22:05:33.268Z,20.77
2017-06-24T22:07:59.621Z,21.73
2017-06-24T22:10:25.985Z,21.73
2017-06-24T22:12:52.715Z,22.70
2017-06-24T22:15:19.043Z,25.00
2017-06-24T22:17:45.474Z,29.80
2017-06-24T22:20:11.821Z,21.27
2017-06-24T22:22:38.188Z,29.83
2017-06-24T22:25:04.527Z,29.60
2017-06-24T22:27:30.921Z,28.37
2017-06-24T22:29:57.357Z,33.17
2017-06-24T22:32:23.734Z,32.27
2017-06-24T22:34:50.118Z,33.10
2017-06-24T22:37:20.466Z,30.50
2017-06-24T22:39:46.810Z,30.70
2017-06-24T22:42:13.185Z,31.27
2017-06-24T22:47:39.321Z,31.93
2017-06-24T22:50:13.002Z,31.97
2017-06-24T22:52:46.026Z,30.90
2017-06-24T22:55:18.806Z,28.80
2017-06-24T22:57:52.355Z,30.10
2017-06-24T23:00:26.091Z,29.70
2017-06-24T23:02:59.293Z,30.57
2017-06-24T23:05:32.570Z,27.43
2017-06-24T23:08:04.899Z,29.97
2017-06-24T23:10:37.673Z,29.90
2017-06-24T23:13:07.682Z,27.43
2017-06-24T23:15:40.011Z,27.07
2017-06-24T23:18:13.725Z,29.50
2017-06-24T23:20:46.657Z,27.23
2017-06-24T23:23:19.212Z,27.77
2017-06-24T23:28:54.646Z,26.80
2017-06-24T23:31:27.773Z,29.23
2017-06-24T23:34:02.350Z,28.40
2017-06-24T23:36:35.717Z,28.20
2017-06-24T23:39:23.258Z,24.93
2017-06-24T23:41:56.464Z,26.33
2017-06-24T23:44:29.861Z,26.23
2017-06-24T23:47:02.852Z,26.53
2017-06-24T23:49:37.076Z,26.73
2017-06-24T23:55:12.235Z,25.93
2017-06-24T23:57:45.193Z,25.87
